Time;durP1;ratioP1;P1;durP2;ratioP2;P2;SDS_P1;SDS_P2;PMS_P1;PMS_P2;Temp;Humidity;BMP_temperature;BMP_pressure;BME280_temperature;BME280_humidity;BME280_pressure;Samples;Min_cycle;Max_cycle;Signal;HPM_P1;HPM_P2
2022/01/08 00:00:07;;;;;;;6.95;1.88;;;2.50;99.90;;;;;;5078378;28;20028;-74
2022/01/08 00:02:33;;;;;;;5.88;2.42;;;2.50;99.90;;;;;;5108727;27;20040;-74
2022/01/08 00:05:00;;;;;;;7.15;2.30;;;2.50;99.90;;;;;;5082591;28;20066;-74
2022/01/08 00:07:26;;;;;;;7.22;2.90;;;2.80;99.90;;;;;;5117370;27;20116;-74
2022/01/08 00:09:51;;;;;;;13.80;4.60;;;2.50;99.90;;;;;;5084032;28;20040;-74
2022/01/08 00:12:17;;;;;;;6.20;2.50;;;2.50;99.90;;;;;;5120357;27;20062;-74
2022/01/08 00:14:46;;;;;;;6.97;2.53;;;2.50;99.90;;;;;;5085637;28;20032;-74
2022/01/08 00:17:12;;;;;;;6.32;2.90;;;2.40;99.90;;;;;;5084934;28;20039;-74
2022/01/08 00:19:37;;;;;;;8.75;2.90;;;2.50;99.90;;;;;;5083094;28;20029;-74
2022/01/08 00:22:03;;;;;;;8.45;4.00;;;2.50;99.90;;;;;;5084526;28;20045;-74
2022/01/08 00:24:29;;;;;;;6.60;2.40;;;2.50;99.90;;;;;;5078481;28;20123;-75
2022/01/08 00:26:54;;;;;;;7.68;2.67;;;2.50;99.90;;;;;;5087323;28;20032;-74
2022/01/08 00:29:20;;;;;;;8.45;2.63;;;2.50;99.90;;;;;;5085877;28;20051;-74
2022/01/08 00:31:46;;;;;;;11.77;3.25;;;2.50;99.90;;;;;;5083794;28;20451;-74
2022/01/08 00:34:11;;;;;;;6.72;2.67;;;2.60;99.90;;;;;;5083215;28;20709;-74
2022/01/08 00:36:37;;;;;;;7.32;2.92;;;2.50;99.90;;;;;;5084800;28;20098;-74
2022/01/08 00:39:03;;;;;;;8.32;2.90;;;2.60;99.90;;;;;;5085479;28;20123;-74
2022/01/08 00:41:30;;;;;;;11.07;2.47;;;2.60;99.90;;;;;;5092326;28;20101;-75
2022/01/08 00:43:55;;;;;;;7.35;2.88;;;2.60;99.90;;;;;;5082519;28;20040;-74
2022/01/08 00:46:21;;;;;;;5.47;2.38;;;2.50;99.90;;;;;;5088489;28;20050;-74
2022/01/08 00:48:46;;;;;;;7.53;2.40;;;2.50;99.90;;;;;;5082514;28;20040;-75
2022/01/08 00:51:12;;;;;;;6.68;2.55;;;2.50;99.90;;;;;;5082638;28;20064;-74
2022/01/08 00:53:38;;;;;;;8.25;3.03;;;2.50;99.90;;;;;;5085106;28;20130;-74
2022/01/08 00:56:04;;;;;;;4.72;2.45;;;2.50;99.90;;;;;;5080810;28;20048;-74
2022/01/08 00:58:30;;;;;;;11.27;3.28;;;2.50;99.90;;;;;;5118866;27;20552;-74
2022/01/08 01:00:57;;;;;;;4.20;2.88;;;2.50;99.90;;;;;;5090524;28;20428;-74
2022/01/08 01:03:23;;;;;;;6.75;3.05;;;2.40;99.90;;;;;;5090350;28;20040;-74
2022/01/08 01:05:48;;;;;;;8.77;3.40;;;2.40;99.90;;;;;;5087860;28;20409;-75
2022/01/08 01:08:14;;;;;;;6.97;3.35;;;2.30;99.90;;;;;;5094461;28;20047;-74
2022/01/08 01:10:40;;;;;;;10.48;3.72;;;2.30;99.90;;;;;;5090922;28;20036;-75
2022/01/08 01:13:06;;;;;;;7.50;3.38;;;2.30;99.90;;;;;;5086369;28;20131;-75
2022/01/08 01:15:32;;;;;;;6.53;3.20;;;2.30;99.90;;;;;;5090762;28;20036;-75
2022/01/08 01:17:57;;;;;;;6.82;3.78;;;2.20;99.90;;;;;;5086472;28;20499;-75
2022/01/08 01:20:23;;;;;;;7.53;4.20;;;2.20;99.90;;;;;;5089675;28;20036;-74
2022/01/08 01:23:11;;;;;;;12.88;3.88;;;2.20;99.90;;;;;;5090675;28;20046;-75
2022/01/08 01:25:42;;;;;;;9.48;4.82;;;2.10;99.90;;;;;;5084372;28;20044;-75
2022/01/08 01:28:20;;;;;;;8.93;4.63;;;2.10;99.90;;;;;;5087165;28;20047;-75
2022/01/08 01:41:46;;;;;;;9.97;6.60;;;1.90;99.90;;;;;;5085796;28;20037;-74
2022/01/08 01:47:02;;;;;;;11.82;7.03;;;1.80;99.90;;;;;;5087546;28;20089;-75
2022/01/08 01:49:34;;;;;;;16.35;7.57;;;1.80;99.90;;;;;;5092870;28;20036;-75
2022/01/08 01:52:01;;;;;;;12.88;7.60;;;1.80;99.90;;;;;;5087292;28;20057;-75
2022/01/08 01:54:28;;;;;;;11.95;6.78;;;1.80;99.90;;;;;;5090831;28;20813;-75
2022/01/08 01:56:57;;;;;;;15.20;7.70;;;1.80;99.90;;;;;;5085224;28;20044;-75
2022/01/08 01:59:30;;;;;;;15.23;7.30;;;1.80;99.90;;;;;;5090670;28;20057;-74
2022/01/08 02:01:56;;;;;;;12.75;7.35;;;1.80;99.90;;;;;;5085246;28;20071;-75
2022/01/08 02:04:24;;;;;;;10.98;7.15;;;1.80;99.90;;;;;;5074166;28;20035;-75
2022/01/08 02:06:50;;;;;;;11.95;7.30;;;1.80;99.90;;;;;;5083310;28;20045;-75
2022/01/08 02:09:15;;;;;;;17.02;7.05;;;1.80;99.90;;;;;;5102298;27;20047;-76
2022/01/08 02:12:17;;;;;;;10.52;6.82;;;1.80;99.90;;;;;;5084724;28;20394;-75
2022/01/08 02:14:45;;;;;;;13.13;7.53;;;1.80;99.90;;;;;;5067940;28;20082;-75
2022/01/08 02:17:11;;;;;;;15.98;7.40;;;2.20;99.90;;;;;;5086781;28;20044;-75
2022/01/08 02:19:38;;;;;;;12.45;7.97;;;1.90;99.90;;;;;;5087124;28;20038;-74
2022/01/08 02:22:05;;;;;;;16.23;9.18;;;2.00;99.90;;;;;;5089598;28;20417;-74
2022/01/08 02:24:31;;;;;;;16.00;7.75;;;2.00;99.90;;;;;;5088455;28;20040;-74
2022/01/08 02:26:57;;;;;;;11.88;7.55;;;2.10;99.90;;;;;;5091758;28;20134;-74
2022/01/08 02:29:25;;;;;;;14.90;7.10;;;2.10;99.90;;;;;;5087155;28;20163;-74
2022/01/08 02:31:56;;;;;;;15.13;7.03;;;2.00;99.90;;;;;;5089442;28;20102;-74
2022/01/08 02:34:23;;;;;;;12.27;6.40;;;2.10;99.90;;;;;;5085160;28;20036;-74
2022/01/08 02:36:49;;;;;;;11.93;6.57;;;2.20;99.90;;;;;;5089545;28;20036;-74
2022/01/08 02:39:14;;;;;;;16.23;6.10;;;2.10;99.90;;;;;;5089983;28;20078;-75
2022/01/08 02:41:40;;;;;;;9.02;5.40;;;2.00;99.90;;;;;;5088104;28;20475;-74
2022/01/08 02:44:06;;;;;;;9.70;4.90;;;2.00;99.90;;;;;;5083649;28;20036;-75
2022/01/08 02:46:32;;;;;;;11.13;5.95;;;2.00;99.90;;;;;;5086308;28;20031;-75
2022/01/08 02:48:58;;;;;;;13.20;6.13;;;2.00;99.90;;;;;;5124305;27;20513;-75
2022/01/08 02:51:24;;;;;;;12.43;6.10;;;1.90;99.90;;;;;;5089094;28;20036;-75
2022/01/08 02:53:50;;;;;;;14.05;6.28;;;1.90;99.90;;;;;;5119759;27;20478;-75
2022/01/08 02:56:16;;;;;;;12.15;5.47;;;1.80;99.90;;;;;;5090101;28;20132;-75
2022/01/08 02:58:41;;;;;;;12.15;6.55;;;1.80;99.90;;;;;;5087308;28;20036;-75
2022/01/08 03:01:07;;;;;;;14.02;5.65;;;1.80;99.90;;;;;;5118812;27;20115;-75
2022/01/08 03:03:33;;;;;;;11.30;5.55;;;1.80;99.90;;;;;;5086186;28;21606;-75
2022/01/08 03:05:58;;;;;;;18.02;6.03;;;1.70;99.90;;;;;;5086961;28;20499;-75
2022/01/08 03:08:26;;;;;;;11.45;5.38;;;1.70;99.90;;;;;;5084247;28;20033;-75
2022/01/08 03:10:52;;;;;;;11.05;5.93;;;1.60;99.90;;;;;;5085167;28;20068;-75
2022/01/08 03:13:18;;;;;;;10.23;4.78;;;1.70;99.90;;;;;;5088190;28;20043;-75
2022/01/08 03:15:43;;;;;;;9.38;5.25;;;1.70;99.90;;;;;;5085392;28;20040;-75
2022/01/08 03:18:09;;;;;;;8.27;4.70;;;1.60;99.90;;;;;;5082359;28;20333;-75
2022/01/08 03:20:43;;;;;;;11.70;5.00;;;1.70;99.90;;;;;;5086123;28;20101;-75
2022/01/08 03:23:14;;;;;;;9.32;4.57;;;1.70;99.90;;;;;;5086096;28;20044;-75
2022/01/08 03:25:39;;;;;;;8.02;4.85;;;1.70;99.90;;;;;;5082766;28;20054;-75
2022/01/08 03:28:05;;;;;;;11.82;4.88;;;1.60;99.90;;;;;;5105453;27;20036;-74
2022/01/08 03:30:30;;;;;;;10.38;4.38;;;1.60;99.90;;;;;;5081558;28;20040;-75
2022/01/08 03:32:56;;;;;;;7.80;4.25;;;1.60;99.90;;;;;;5106391;27;20039;-75
2022/01/08 03:35:22;;;;;;;11.63;4.65;;;1.70;99.90;;;;;;5086529;28;20455;-75
2022/01/08 03:37:47;;;;;;;9.25;4.28;;;1.60;99.90;;;;;;5087329;28;20050;-75
2022/01/08 03:40:14;;;;;;;9.77;3.65;;;1.70;99.90;;;;;;5113820;27;20043;-74
2022/01/08 03:42:39;;;;;;;10.43;4.07;;;1.60;99.90;;;;;;5085095;28;20075;-75
2022/01/08 03:45:06;;;;;;;8.23;4.15;;;1.70;99.90;;;;;;5085338;28;20101;-74
2022/01/08 03:47:54;;;;;;;10.07;4.60;;;1.70;99.90;;;;;;5086502;28;20032;-74
2022/01/08 03:50:17;;;;;;;9.60;4.25;;;1.70;99.90;;;;;;5087797;28;20039;-75
2022/01/08 03:52:45;;;;;;;11.48;4.07;;;1.60;99.90;;;;;;5084731;28;20045;-75
2022/01/08 03:55:11;;;;;;;5.60;3.58;;;1.80;99.90;;;;;;5086392;28;20485;-75
2022/01/08 03:57:37;;;;;;;5.88;3.85;;;1.80;99.90;;;;;;5087671;28;20028;-74
2022/01/08 04:00:04;;;;;;;5.88;3.47;;;1.80;99.90;;;;;;5087051;28;20394;-74
2022/01/08 04:02:29;;;;;;;11.07;4.32;;;1.80;99.90;;;;;;5088234;28;20041;-75
2022/01/08 04:04:55;;;;;;;7.93;3.60;;;1.80;99.90;;;;;;5084254;28;20047;-75
2022/01/08 04:07:21;;;;;;;9.73;3.78;;;1.80;99.90;;;;;;5089004;28;20036;-75
2022/01/08 04:09:46;;;;;;;9.00;4.13;;;1.90;99.90;;;;;;5083637;28;20087;-75
2022/01/08 04:12:16;;;;;;;8.50;3.83;;;1.90;99.90;;;;;;5088019;28;20151;-74
2022/01/08 04:14:53;;;;;;;10.07;4.50;;;1.90;99.90;;;;;;5091767;28;20379;-74
2022/01/08 04:17:19;;;;;;;9.50;4.22;;;1.90;99.90;;;;;;5085678;28;20090;-74
2022/01/08 04:19:45;;;;;;;8.55;4.75;;;1.90;99.90;;;;;;5084178;28;20036;-74
2022/01/08 04:22:12;;;;;;;9.60;5.30;;;2.00;99.90;;;;;;5086460;28;20047;-74
2022/01/08 04:24:40;;;;;;;10.63;5.57;;;1.80;99.90;;;;;;5085783;28;20147;-74
2022/01/08 04:27:06;;;;;;;15.40;6.32;;;1.80;99.90;;;;;;5086420;28;20452;-74
2022/01/08 04:29:32;;;;;;;10.27;6.05;;;1.80;99.90;;;;;;5087429;28;20040;-74
2022/01/08 04:31:57;;;;;;;16.45;6.35;;;1.80;99.90;;;;;;5114072;27;20066;-74
2022/01/08 04:34:23;;;;;;;16.73;6.22;;;1.80;99.90;;;;;;5088919;28;20035;-74
2022/01/08 04:36:49;;;;;;;8.20;6.13;;;1.80;99.90;;;;;;5091336;28;20119;-75
2022/01/08 04:39:15;;;;;;;13.40;6.43;;;1.80;99.90;;;;;;5069376;28;20032;-74
2022/01/08 04:41:43;;;;;;;9.63;6.80;;;1.80;99.90;;;;;;5091416;28;20490;-74
2022/01/08 04:44:09;;;;;;;11.85;6.63;;;1.80;99.90;;;;;;5093007;28;20528;-75
2022/01/08 04:46:35;;;;;;;13.88;7.07;;;1.70;99.90;;;;;;5089679;28;20115;-74
2022/01/08 04:49:00;;;;;;;16.48;8.23;;;1.70;99.90;;;;;;5090110;28;20151;-75
2022/01/08 04:51:26;;;;;;;17.70;7.63;;;1.60;99.90;;;;;;5093172;28;20074;-75
2022/01/08 04:53:51;;;;;;;15.48;7.05;;;1.60;99.90;;;;;;5086612;28;20427;-74
2022/01/08 04:56:17;;;;;;;16.83;7.30;;;1.60;99.90;;;;;;5091399;28;20117;-73
2022/01/08 04:58:42;;;;;;;13.55;7.22;;;1.70;99.90;;;;;;5093171;28;20036;-73
2022/01/08 05:01:17;;;;;;;15.40;7.80;;;1.60;99.90;;;;;;5086577;28;20070;-73
2022/01/08 05:03:43;;;;;;;18.10;7.47;;;1.60;99.90;;;;;;5086729;28;20052;-73
2022/01/08 05:06:08;;;;;;;15.90;7.50;;;1.50;99.90;;;;;;5089438;28;20419;-73
2022/01/08 05:08:34;;;;;;;14.07;6.75;;;1.50;99.90;;;;;;5123139;27;20126;-73
2022/01/08 05:11:00;;;;;;;13.07;6.30;;;1.60;99.90;;;;;;5088904;28;20039;-73
2022/01/08 05:13:25;;;;;;;8.80;5.53;;;1.50;99.90;;;;;;5090349;28;20126;-73
2022/01/08 05:15:51;;;;;;;15.40;7.40;;;1.50;99.90;;;;;;5093449;28;20101;-73
2022/01/08 05:18:17;;;;;;;12.20;7.03;;;1.50;99.90;;;;;;5088229;28;20035;-73
2022/01/08 05:20:51;;;;;;;14.50;7.07;;;1.40;99.90;;;;;;5089555;28;20118;-73
2022/01/08 05:23:17;;;;;;;13.43;6.45;;;1.40;99.90;;;;;;5087465;28;20044;-73
2022/01/08 05:25:42;;;;;;;13.35;6.32;;;1.40;99.90;;;;;;5108890;27;20051;-73
2022/01/08 05:28:08;;;;;;;18.55;6.25;;;1.40;99.90;;;;;;5086573;28;20044;-73
2022/01/08 05:30:33;;;;;;;10.70;6.40;;;1.40;99.90;;;;;;5085349;28;20400;-73
2022/01/08 05:32:59;;;;;;;12.15;6.45;;;1.40;99.90;;;;;;5084035;28;20047;-73
2022/01/08 05:35:26;;;;;;;9.55;5.80;;;1.30;99.90;;;;;;5087726;28;20045;-73
2022/01/08 05:37:53;;;;;;;10.13;5.25;;;1.30;99.90;;;;;;5092971;28;20151;-73
2022/01/08 05:40:19;;;;;;;17.02;6.22;;;1.30;99.90;;;;;;5121632;27;20071;-73
2022/01/08 05:42:45;;;;;;;12.65;5.90;;;1.40;99.90;;;;;;5086171;28;20399;-73
2022/01/08 05:45:10;;;;;;;12.48;5.65;;;1.40;99.90;;;;;;5084387;28;20051;-73
2022/01/08 05:47:37;;;;;;;11.20;5.55;;;1.30;99.90;;;;;;5116801;27;20036;-73
2022/01/08 05:50:03;;;;;;;13.40;5.10;;;1.30;99.90;;;;;;5090317;28;20039;-73
2022/01/08 05:52:29;;;;;;;11.52;4.93;;;1.30;99.90;;;;;;5083200;28;20047;-73
2022/01/08 05:54:55;;;;;;;11.43;4.68;;;1.30;99.90;;;;;;5125145;27;20085;-73
2022/01/08 05:57:20;;;;;;;10.15;4.55;;;1.40;99.90;;;;;;5089799;28;20591;-73
2022/01/08 05:59:46;;;;;;;17.38;4.53;;;1.20;99.90;;;;;;5087090;28;20032;-73
2022/01/08 06:02:11;;;;;;;10.23;3.80;;;1.20;99.90;;;;;;5087914;28;20068;-73
2022/01/08 06:04:37;;;;;;;13.35;3.85;;;1.20;99.90;;;;;;5087005;28;20571;-73
2022/01/08 06:07:04;;;;;;;13.80;3.50;;;1.30;99.90;;;;;;5087159;28;20036;-72
2022/01/08 06:09:29;;;;;;;13.63;3.95;;;1.30;99.90;;;;;;5088732;28;20044;-72
2022/01/08 06:11:56;;;;;;;15.95;4.65;;;1.20;99.90;;;;;;5085634;28;20083;-73
2022/01/08 06:14:22;;;;;;;9.45;3.53;;;1.30;99.90;;;;;;5117495;27;20038;-73
2022/01/08 06:16:48;;;;;;;10.15;3.35;;;1.30;99.90;;;;;;5088308;28;20051;-73
2022/01/08 06:19:15;;;;;;;11.10;3.38;;;1.30;99.90;;;;;;5117578;27;20490;-73
2022/01/08 06:21:41;;;;;;;12.43;3.97;;;1.30;99.90;;;;;;5116215;27;20044;-73
2022/01/08 06:24:07;;;;;;;8.98;3.35;;;1.20;99.90;;;;;;5085414;28;20044;-73
2022/01/08 06:26:33;;;;;;;12.55;4.00;;;1.20;99.90;;;;;;5120661;27;20124;-73
2022/01/08 06:28:59;;;;;;;8.55;3.50;;;1.30;99.90;;;;;;5085737;28;20070;-73
2022/01/08 06:31:25;;;;;;;7.00;3.97;;;1.20;99.90;;;;;;5085784;28;20071;-73
2022/01/08 06:33:51;;;;;;;10.55;3.40;;;1.20;99.90;;;;;;5084835;28;20047;-73
2022/01/08 06:36:18;;;;;;;11.68;4.00;;;1.20;99.90;;;;;;5106802;27;20044;-73
2022/01/08 06:38:45;;;;;;;9.23;4.88;;;1.20;99.90;;;;;;5087975;28;20077;-73
2022/01/08 06:41:11;;;;;;;11.98;4.70;;;1.20;99.90;;;;;;5086323;28;20036;-73
2022/01/08 06:43:36;;;;;;;16.23;4.68;;;1.60;99.90;;;;;;5087094;28;20039;-73
2022/01/08 06:46:02;;;;;;;13.52;3.85;;;1.20;99.90;;;;;;5087479;28;20537;-73
2022/01/08 06:48:27;;;;;;;10.70;3.92;;;1.10;99.90;;;;;;5088069;28;20047;-73
2022/01/08 06:50:53;;;;;;;8.68;4.50;;;1.20;99.90;;;;;;5086204;28;20047;-73
2022/01/08 06:53:19;;;;;;;10.73;4.38;;;1.20;99.90;;;;;;5077507;28;20043;-73
2022/01/08 06:55:44;;;;;;;6.70;3.92;;;1.20;99.90;;;;;;5113577;27;20123;-72
2022/01/08 06:58:13;;;;;;;9.40;4.43;;;1.20;99.90;;;;;;5079182;28;20051;-73
2022/01/08 07:00:39;;;;;;;14.32;5.15;;;1.10;99.90;;;;;;5080536;28;20056;-73
2022/01/08 07:03:09;;;;;;;15.68;4.80;;;1.40;99.90;;;;;;5083284;28;20059;-73
2022/01/08 07:05:35;;;;;;;14.98;5.18;;;1.20;99.90;;;;;;5077937;28;20170;-73
2022/01/08 07:08:01;;;;;;;10.18;4.80;;;1.10;99.90;;;;;;5081924;28;20499;-73
2022/01/08 07:10:27;;;;;;;13.35;5.00;;;1.20;99.90;;;;;;5079326;28;20116;-73
2022/01/08 07:12:52;;;;;;;14.40;4.55;;;1.20;99.90;;;;;;5079313;28;20033;-73
2022/01/08 07:15:18;;;;;;;16.02;6.10;;;1.20;99.90;;;;;;5075063;28;20097;-73
2022/01/08 07:17:44;;;;;;;11.55;4.88;;;1.10;99.90;;;;;;5079788;28;20066;-73
2022/01/08 07:20:10;;;;;;;13.02;4.70;;;1.10;99.90;;;;;;5079342;28;20036;-73
2022/01/08 07:22:36;;;;;;;10.10;4.28;;;1.20;99.90;;;;;;5079122;28;20107;-73
2022/01/08 07:25:03;;;;;;;16.40;5.07;;;1.20;99.90;;;;;;5080034;28;20135;-72
2022/01/08 07:27:32;;;;;;;15.15;4.97;;;1.10;99.90;;;;;;5077700;28;20035;-72
2022/01/08 07:30:01;;;;;;;9.30;3.92;;;1.10;99.90;;;;;;5115190;27;20040;-72
2022/01/08 07:32:27;;;;;;;9.95;3.88;;;1.20;99.90;;;;;;5075101;28;20051;-73
2022/01/08 07:34:53;;;;;;;11.52;5.32;;;1.20;99.90;;;;;;5080759;28;20044;-74
2022/01/08 07:37:19;;;;;;;8.82;3.55;;;1.20;99.90;;;;;;5077717;28;20634;-74
2022/01/08 07:39:45;;;;;;;9.40;4.53;;;1.20;99.90;;;;;;5076555;28;20043;-74
2022/01/08 07:42:10;;;;;;;15.20;4.20;;;1.40;99.90;;;;;;5078611;28;20119;-74
2022/01/08 07:44:36;;;;;;;9.70;4.00;;;1.20;99.90;;;;;;5080361;28;20037;-74
2022/01/08 07:47:02;;;;;;;10.43;3.53;;;1.20;99.90;;;;;;5112188;27;20044;-75
2022/01/08 07:49:28;;;;;;;18.20;4.07;;;1.30;99.90;;;;;;5077505;28;20044;-74
2022/01/08 07:51:54;;;;;;;9.13;3.42;;;1.30;99.90;;;;;;5081882;28;20062;-74
2022/01/08 07:54:19;;;;;;;13.85;3.78;;;1.30;99.90;;;;;;5075293;28;20036;-74
2022/01/08 07:56:45;;;;;;;15.18;4.13;;;1.30;99.90;;;;;;5077444;28;20040;-74
2022/01/08 07:59:10;;;;;;;14.45;5.07;;;1.30;99.90;;;;;;5086269;28;20043;-74
2022/01/08 08:01:36;;;;;;;7.95;2.60;;;1.30;99.90;;;;;;5085802;28;20135;-74
2022/01/08 08:04:02;;;;;;;9.15;3.17;;;1.30;99.90;;;;;;5083770;28;20047;-74
2022/01/08 08:06:28;;;;;;;8.52;3.22;;;1.30;99.90;;;;;;5081389;28;20146;-74
2022/01/08 08:08:53;;;;;;;12.20;3.30;;;1.40;99.90;;;;;;5078488;28;20043;-74
2022/01/08 08:11:19;;;;;;;11.65;2.70;;;1.40;99.90;;;;;;5079863;28;20048;-74
2022/01/08 08:13:45;;;;;;;16.58;3.08;;;1.40;99.90;;;;;;5079853;28;20044;-74
2022/01/08 08:16:11;;;;;;;9.15;2.83;;;1.50;99.90;;;;;;5081893;28;20040;-74
2022/01/08 08:18:36;;;;;;;17.60;5.20;;;1.50;99.90;;;;;;5114035;27;20426;-74
2022/01/08 08:21:02;;;;;;;8.13;2.70;;;1.50;99.90;;;;;;5112988;27;20047;-74
2022/01/08 08:23:28;;;;;;;10.00;3.05;;;1.50;99.90;;;;;;5085098;28;20039;-74
2022/01/08 08:25:54;;;;;;;10.80;3.05;;;1.50;99.90;;;;;;5087484;28;20048;-73
2022/01/08 08:28:19;;;;;;;8.85;2.67;;;1.50;99.90;;;;;;5092475;28;20032;-74
2022/01/08 08:30:45;;;;;;;10.60;2.47;;;1.50;99.90;;;;;;5080829;28;20364;-74
2022/01/08 08:33:11;;;;;;;12.52;3.00;;;1.60;99.90;;;;;;5112043;27;20047;-74
2022/01/08 08:35:37;;;;;;;10.90;2.55;;;1.50;99.90;;;;;;5080275;28;20051;-74
2022/01/08 08:38:03;;;;;;;19.52;3.10;;;1.60;99.90;;;;;;5077226;28;20163;-74
2022/01/08 08:40:31;;;;;;;8.27;3.55;;;1.60;99.90;;;;;;5079173;28;20042;-74
2022/01/08 08:42:57;;;;;;;8.30;3.15;;;1.60;99.90;;;;;;5111729;27;20094;-74
2022/01/08 08:45:23;;;;;;;10.15;2.88;;;1.70;99.90;;;;;;5078938;28;20044;-74
2022/01/08 08:47:50;;;;;;;11.73;3.33;;;1.70;99.90;;;;;;5080731;28;20036;-73
2022/01/08 08:50:16;;;;;;;10.13;3.03;;;1.80;99.90;;;;;;5079792;28;20045;-74
2022/01/08 08:52:42;;;;;;;11.77;2.60;;;1.80;99.90;;;;;;5080853;28;20041;-73
2022/01/08 08:55:08;;;;;;;13.38;3.92;;;2.00;99.90;;;;;;5061330;28;20044;-73
2022/01/08 08:57:34;;;;;;;13.02;2.85;;;1.80;99.90;;;;;;5082116;28;20032;-74
2022/01/08 09:00:00;;;;;;;10.05;2.97;;;1.90;99.90;;;;;;5080495;28;20049;-73
2022/01/08 09:02:26;;;;;;;15.13;3.28;;;1.90;99.90;;;;;;5114427;27;20099;-74
2022/01/08 09:04:52;;;;;;;10.32;3.65;;;1.90;99.90;;;;;;5113879;27;20058;-73
2022/01/08 09:07:17;;;;;;;10.18;3.08;;;2.00;99.90;;;;;;5084695;28;20042;-73
2022/01/08 09:09:44;;;;;;;8.13;3.05;;;2.00;99.90;;;;;;5116967;27;20044;-73
2022/01/08 09:12:14;;;;;;;11.05;3.35;;;2.00;99.90;;;;;;5084714;28;20133;-73
2022/01/08 09:14:39;;;;;;;12.27;3.17;;;2.10;99.90;;;;;;5078496;28;20090;-73
2022/01/08 09:17:05;;;;;;;11.55;4.22;;;2.10;99.90;;;;;;5084715;28;20395;-74
2022/01/08 09:19:32;;;;;;;9.13;3.80;;;2.20;99.90;;;;;;5083160;28;20131;-73
2022/01/08 09:21:58;;;;;;;9.52;3.75;;;2.20;99.90;;;;;;5084754;28;20062;-73
2022/01/08 09:24:24;;;;;;;9.85;3.08;;;2.20;99.90;;;;;;5089588;28;20068;-73
2022/01/08 09:26:50;;;;;;;15.90;3.25;;;2.30;99.90;;;;;;5086674;28;20067;-73
2022/01/08 09:29:16;;;;;;;13.68;4.65;;;2.30;99.90;;;;;;5086695;28;20050;-73
2022/01/08 09:31:42;;;;;;;8.35;3.17;;;2.40;99.90;;;;;;5087336;28;20036;-73
2022/01/08 09:34:09;;;;;;;11.00;3.67;;;2.30;99.90;;;;;;5080862;28;20047;-74
2022/01/08 09:36:35;;;;;;;14.05;3.22;;;2.30;99.90;;;;;;5079982;28;20541;-73
2022/01/08 09:39:02;;;;;;;11.50;3.38;;;2.30;99.90;;;;;;5084014;28;20036;-73
2022/01/08 09:41:28;;;;;;;12.10;3.38;;;2.30;99.90;;;;;;5083164;28;20036;-73
2022/01/08 09:43:54;;;;;;;11.43;3.22;;;2.40;99.90;;;;;;5077717;28;20051;-73
2022/01/08 09:46:21;;;;;;;12.82;3.80;;;2.40;99.90;;;;;;5116607;27;20044;-73
2022/01/08 09:48:48;;;;;;;8.85;2.97;;;2.40;99.90;;;;;;5086595;28;20085;-73
2022/01/08 09:51:15;;;;;;;9.18;3.22;;;2.50;99.90;;;;;;5079026;28;20401;-73
2022/01/08 09:53:40;;;;;;;11.75;3.67;;;2.50;99.90;;;;;;5081429;28;20815;-73
2022/01/08 09:56:06;;;;;;;17.50;4.97;;;2.60;99.90;;;;;;5089882;28;20036;-73
2022/01/08 09:58:33;;;;;;;7.40;3.28;;;2.50;99.90;;;;;;5084440;28;20031;-73
2022/01/08 10:00:59;;;;;;;9.63;3.17;;;2.50;99.90;;;;;;5084751;28;20055;-73
2022/01/08 10:03:30;;;;;;;16.52;3.83;;;2.50;99.90;;;;;;5085111;28;20050;-73
2022/01/08 10:06:00;;;;;;;10.40;4.00;;;2.60;99.90;;;;;;5103469;27;20048;-73
2022/01/08 10:08:28;;;;;;;9.85;3.70;;;2.60;99.90;;;;;;5089640;28;20036;-73
2022/01/08 10:11:03;;;;;;;8.93;4.05;;;2.70;99.90;;;;;;5086381;28;20043;-73
2022/01/08 10:13:32;;;;;;;10.43;3.95;;;2.70;99.90;;;;;;5092808;28;20611;-73
2022/01/08 10:18:45;;;;;;;11.65;4.25;;;2.80;99.90;;;;;;5087927;28;20044;-72
2022/01/08 10:21:33;;;;;;;16.45;4.13;;;2.90;99.90;;;;;;5121250;27;20051;-73
2022/01/08 10:24:00;;;;;;;9.45;3.95;;;2.90;99.90;;;;;;5086660;28;20406;-72
2022/01/08 10:26:31;;;;;;;10.02;4.65;;;3.00;99.90;;;;;;5085342;28;20044;-72
2022/01/08 10:29:01;;;;;;;13.70;4.80;;;3.10;99.90;;;;;;5085313;28;20048;-73
2022/01/08 10:31:51;;;;;;;10.73;4.30;;;3.00;99.90;;;;;;5085871;28;20036;-72
2022/01/08 10:34:20;;;;;;;11.23;5.30;;;3.00;99.90;;;;;;5085658;28;20164;-72
2022/01/08 10:37:04;;;;;;;9.38;4.82;;;3.10;99.90;;;;;;5086416;28;20088;-72
2022/01/08 10:39:53;;;;;;;15.23;5.00;;;3.10;99.90;;;;;;5086099;28;20123;-72
2022/01/08 10:42:19;;;;;;;12.30;5.53;;;3.10;99.90;;;;;;5087211;28;20044;-72
2022/01/08 10:44:47;;;;;;;9.05;4.47;;;3.20;99.90;;;;;;5086702;28;20109;-72
2022/01/08 10:47:17;;;;;;;11.65;5.07;;;3.20;99.90;;;;;;5084265;28;20053;-78
2022/01/08 10:49:48;;;;;;;16.45;5.20;;;3.30;99.90;;;;;;5087413;28;20071;-75
2022/01/08 10:52:19;;;;;;;11.43;5.28;;;3.30;99.90;;;;;;5084716;28;20578;-78
2022/01/08 10:54:47;;;;;;;9.93;4.95;;;3.30;99.90;;;;;;5082267;28;20036;-77
2022/01/08 10:57:14;;;;;;;10.80;6.03;;;3.30;99.90;;;;;;5080544;28;20131;-77
2022/01/08 10:59:41;;;;;;;11.40;5.65;;;3.30;99.90;;;;;;5079452;28;20478;-75
2022/01/08 11:02:14;;;;;;;12.20;4.95;;;3.30;99.90;;;;;;5081175;28;20079;-75
2022/01/08 11:04:52;;;;;;;13.80;4.85;;;3.40;99.90;;;;;;5087868;28;20183;-75
2022/01/08 11:07:26;;;;;;;9.23;4.40;;;3.40;99.90;;;;;;5082048;28;20044;-76
2022/01/08 11:09:55;;;;;;;11.85;5.53;;;3.50;99.90;;;;;;5083957;28;20121;-76
2022/01/08 11:12:29;;;;;;;9.75;4.43;;;3.50;99.90;;;;;;5085165;28;20093;-75
2022/01/08 11:15:24;;;;;;;16.30;5.30;;;3.50;99.90;;;;;;5087543;28;20062;-76
2022/01/08 11:17:57;;;;;;;13.25;4.65;;;3.50;99.90;;;;;;5086110;28;20054;-76
2022/01/08 11:20:32;;;;;;;9.63;4.63;;;3.50;99.90;;;;;;5085687;28;20055;-77
2022/01/08 11:23:01;;;;;;;14.37;5.90;;;3.60;99.90;;;;;;5085105;28;20047;-73
2022/01/08 11:25:33;;;;;;;12.13;5.00;;;3.60;99.90;;;;;;5102055;27;20402;-75
2022/01/08 11:28:00;;;;;;;10.15;5.50;;;3.70;99.90;;;;;;5085955;28;20041;-74
2022/01/08 11:30:35;;;;;;;11.15;5.28;;;3.70;99.90;;;;;;5089568;28;20133;-75
2022/01/08 11:33:07;;;;;;;14.57;5.35;;;3.70;99.90;;;;;;5083610;28;20051;-75
2022/01/08 11:35:35;;;;;;;11.50;5.43;;;3.70;99.90;;;;;;5082688;28;20862;-76
2022/01/08 11:38:04;;;;;;;9.05;5.00;;;3.90;99.90;;;;;;5086430;28;20053;-79
2022/01/08 11:40:31;;;;;;;13.73;5.75;;;3.80;99.90;;;;;;5085250;28;20240;-72
2022/01/08 11:43:02;;;;;;;12.40;6.03;;;3.80;99.90;;;;;;5083231;28;20177;-76
2022/01/08 11:45:33;;;;;;;11.30;5.53;;;3.90;99.90;;;;;;5113228;27;20105;-83
2022/01/08 11:48:02;;;;;;;20.52;7.45;;;3.80;99.90;;;;;;5085803;28;20528;-71
2022/01/08 11:50:29;;;;;;;12.05;6.55;;;3.90;99.90;;;;;;5085242;28;20123;-79
2022/01/08 11:53:15;;;;;;;12.55;6.47;;;3.90;99.90;;;;;;5081797;28;20660;-80
2022/01/08 11:55:43;;;;;;;11.15;6.53;;;3.80;99.90;;;;;;5086800;28;20119;-78
2022/01/08 11:58:21;;;;;;;17.60;6.88;;;3.90;99.90;;;;;;5088872;28;20052;-78
2022/01/08 12:01:00;;;;;;;10.57;6.90;;;3.80;99.90;;;;;;5082354;28;20557;-79
2022/01/08 12:03:39;;;;;;;15.93;7.05;;;3.80;99.90;;;;;;5077215;28;20041;-78
2022/01/08 12:06:29;;;;;;;14.43;7.60;;;3.80;99.90;;;;;;5114946;27;20133;-79
2022/01/08 12:09:08;;;;;;;13.85;7.63;;;3.80;99.90;;;;;;5082415;28;20039;-78
2022/01/08 12:11:56;;;;;;;15.95;8.27;;;3.90;99.90;;;;;;5081505;28;20039;-78
2022/01/08 12:14:34;;;;;;;19.73;8.65;;;3.80;99.90;;;;;;5082635;28;20457;-78
2022/01/08 12:17:18;;;;;;;13.52;8.10;;;3.90;99.90;;;;;;5077206;28;20044;-79
2022/01/08 12:19:52;;;;;;;20.15;9.73;;;3.80;99.90;;;;;;5078330;28;20040;-79
2022/01/08 12:22:20;;;;;;;15.15;9.73;;;3.90;99.90;;;;;;5081259;28;20036;-78
2022/01/08 12:24:58;;;;;;;15.02;10.30;;;3.90;99.90;;;;;;5084283;28;20135;-79
2022/01/08 12:27:44;;;;;;;13.02;9.95;;;3.90;99.90;;;;;;5109205;27;20040;-78
2022/01/08 12:30:20;;;;;;;14.52;11.50;;;3.90;99.90;;;;;;5112262;27;20051;-78
2022/01/08 12:32:52;;;;;;;16.20;10.27;;;3.90;99.90;;;;;;5079408;28;20048;-79
2022/01/08 12:35:28;;;;;;;16.70;10.73;;;3.80;99.90;;;;;;5086040;28;20036;-79
2022/01/08 12:37:57;;;;;;;17.88;10.93;;;3.90;99.90;;;;;;5078523;28;20045;-79
2022/01/08 12:40:38;;;;;;;12.85;10.80;;;3.80;99.90;;;;;;5113153;27;20044;-79
2022/01/08 12:43:23;;;;;;;17.90;11.93;;;3.80;99.90;;;;;;5080278;28;20045;-79
2022/01/08 12:45:50;;;;;;;18.50;11.88;;;3.80;99.90;;;;;;5113208;27;20396;-78
2022/01/08 12:48:18;;;;;;;20.48;12.02;;;3.90;99.90;;;;;;5080188;28;20067;-78
2022/01/08 12:50:43;;;;;;;15.30;11.82;;;3.90;99.90;;;;;;5079006;28;20109;-79
2022/01/08 12:53:15;;;;;;;17.60;12.30;;;3.90;99.90;;;;;;5077309;28;20488;-79
2022/01/08 12:55:56;;;;;;;18.95;12.07;;;3.90;99.90;;;;;;5113907;27;20075;-78
2022/01/08 12:58:30;;;;;;;15.07;11.35;;;3.90;99.90;;;;;;5114115;27;20033;-79
2022/01/08 13:01:11;;;;;;;19.42;13.68;;;3.90;99.90;;;;;;5081437;28;20039;-79
2022/01/08 13:03:39;;;;;;;18.95;12.00;;;3.90;99.90;;;;;;5090616;28;20115;-79
2022/01/08 13:06:08;;;;;;;17.70;11.90;;;3.90;99.90;;;;;;5092825;28;20494;-79
2022/01/08 13:08:34;;;;;;;17.55;11.77;;;3.80;99.90;;;;;;5092438;28;20059;-79
2022/01/08 13:11:05;;;;;;;20.02;13.60;;;3.80;99.90;;;;;;5095131;28;20597;-78